sensor_id;sensor_type;location;lat;lon;timestamp;P1;durP1;ratioP1;P2;durP2;ratioP2
1949;SDS011;975;48.760;9.152;2022-12-20T00:00:21;13.68;;;5.97;;
1949;SDS011;975;48.760;9.152;2022-12-20T00:03:09;7.55;;;4.65;;
1949;SDS011;975;48.760;9.152;2022-12-20T00:05:58;9.05;;;5.28;;
1949;SDS011;975;48.760;9.152;2022-12-20T00:08:46;12.00;;;5.78;;
1949;SDS011;975;48.760;9.152;2022-12-20T00:11:37;11.60;;;5.72;;
1949;SDS011;975;48.760;9.152;2022-12-20T00:14:25;10.95;;;5.63;;
1949;SDS011;975;48.760;9.152;2022-12-20T00:17:13;9.10;;;5.43;;
1949;SDS011;975;48.760;9.152;2022-12-20T00:20:01;14.00;;;5.18;;
1949;SDS011;975;48.760;9.152;2022-12-20T00:22:53;8.75;;;4.95;;
1949;SDS011;975;48.760;9.152;2022-12-20T00:25:41;9.00;;;4.97;;
1949;SDS011;975;48.760;9.152;2022-12-20T00:28:29;11.23;;;5.22;;
1949;SDS011;975;48.760;9.152;2022-12-20T00:31:17;9.60;;;4.80;;
1949;SDS011;975;48.760;9.152;2022-12-20T00:34:05;14.02;;;5.10;;
1949;SDS011;975;48.760;9.152;2022-12-20T00:36:53;13.27;;;5.47;;
1949;SDS011;975;48.760;9.152;2022-12-20T00:39:43;17.60;;;5.82;;
1949;SDS011;975;48.760;9.152;2022-12-20T00:42:30;16.25;;;5.70;;
1949;SDS011;975;48.760;9.152;2022-12-20T00:45:18;10.43;;;5.45;;
1949;SDS011;975;48.760;9.152;2022-12-20T00:48:06;13.50;;;6.15;;
1949;SDS011;975;48.760;9.152;2022-12-20T00:50:57;11.38;;;5.97;;
1949;SDS011;975;48.760;9.152;2022-12-20T00:53:45;16.35;;;7.07;;
1949;SDS011;975;48.760;9.152;2022-12-20T00:56:35;10.52;;;6.50;;
1949;SDS011;975;48.760;9.152;2022-12-20T00:59:23;13.63;;;6.30;;
1949;SDS011;975;48.760;9.152;2022-12-20T01:02:11;11.85;;;6.32;;
1949;SDS011;975;48.760;9.152;2022-12-20T01:04:59;12.82;;;6.88;;
1949;SDS011;975;48.760;9.152;2022-12-20T01:07:47;14.43;;;6.68;;
1949;SDS011;975;48.760;9.152;2022-12-20T01:10:35;18.27;;;6.95;;
1949;SDS011;975;48.760;9.152;2022-12-20T01:13:24;15.35;;;7.50;;
1949;SDS011;975;48.760;9.152;2022-12-20T01:16:12;16.48;;;7.85;;
1949;SDS011;975;48.760;9.152;2022-12-20T01:19:01;15.57;;;8.00;;
1949;SDS011;975;48.760;9.152;2022-12-20T01:21:49;20.38;;;8.82;;
1949;SDS011;975;48.760;9.152;2022-12-20T01:24:36;18.10;;;9.43;;
1949;SDS011;975;48.760;9.152;2022-12-20T01:27:24;18.13;;;9.57;;
1949;SDS011;975;48.760;9.152;2022-12-20T01:30:15;19.80;;;9.18;;
1949;SDS011;975;48.760;9.152;2022-12-20T01:33:03;19.50;;;8.35;;
1949;SDS011;975;48.760;9.152;2022-12-20T01:35:54;15.40;;;8.43;;
1949;SDS011;975;48.760;9.152;2022-12-20T01:38:42;16.23;;;8.43;;
1949;SDS011;975;48.760;9.152;2022-12-20T01:41:30;18.35;;;8.52;;
1949;SDS011;975;48.760;9.152;2022-12-20T01:47:27;16.98;;;8.00;;
1949;SDS011;975;48.760;9.152;2022-12-20T01:50:16;21.17;;;9.52;;
1949;SDS011;975;48.760;9.152;2022-12-20T01:53:04;18.63;;;9.07;;
1949;SDS011;975;48.760;9.152;2022-12-20T01:55:52;21.70;;;9.40;;
1949;SDS011;975;48.760;9.152;2022-12-20T01:58:40;19.77;;;8.50;;
1949;SDS011;975;48.760;9.152;2022-12-20T02:01:29;20.10;;;8.35;;
1949;SDS011;975;48.760;9.152;2022-12-20T02:04:18;14.50;;;7.97;;
1949;SDS011;975;48.760;9.152;2022-12-20T02:07:06;15.60;;;8.05;;
1949;SDS011;975;48.760;9.152;2022-12-20T02:09:54;18.95;;;9.90;;
1949;SDS011;975;48.760;9.152;2022-12-20T02:12:44;18.90;;;9.35;;
1949;SDS011;975;48.760;9.152;2022-12-20T02:15:34;19.33;;;9.00;;
1949;SDS011;975;48.760;9.152;2022-12-20T02:18:28;17.98;;;9.00;;
1949;SDS011;975;48.760;9.152;2022-12-20T02:21:22;17.85;;;8.85;;
1949;SDS011;975;48.760;9.152;2022-12-20T02:30:28;19.05;;;9.95;;
1949;SDS011;975;48.760;9.152;2022-12-20T02:33:19;19.13;;;9.55;;
1949;SDS011;975;48.760;9.152;2022-12-20T02:36:08;18.35;;;9.13;;
1949;SDS011;975;48.760;9.152;2022-12-20T02:38:56;16.92;;;9.18;;
1949;SDS011;975;48.760;9.152;2022-12-20T02:41:45;18.75;;;10.25;;
1949;SDS011;975;48.760;9.152;2022-12-20T02:44:35;18.80;;;9.38;;
1949;SDS011;975;48.760;9.152;2022-12-20T02:47:46;18.50;;;9.52;;
1949;SDS011;975;48.760;9.152;2022-12-20T02:50:35;19.35;;;9.07;;
1949;SDS011;975;48.760;9.152;2022-12-20T02:53:24;19.70;;;9.63;;
1949;SDS011;975;48.760;9.152;2022-12-20T02:56:15;19.67;;;9.40;;
1949;SDS011;975;48.760;9.152;2022-12-20T02:59:07;17.63;;;9.18;;
1949;SDS011;975;48.760;9.152;2022-12-20T03:01:56;16.35;;;8.68;;
1949;SDS011;975;48.760;9.152;2022-12-20T03:04:45;19.67;;;9.10;;
1949;SDS011;975;48.760;9.152;2022-12-20T03:07:34;17.88;;;8.13;;
1949;SDS011;975;48.760;9.152;2022-12-20T03:10:22;15.15;;;7.68;;
1949;SDS011;975;48.760;9.152;2022-12-20T03:13:10;15.88;;;8.38;;
1949;SDS011;975;48.760;9.152;2022-12-20T03:15:58;18.77;;;7.97;;
1949;SDS011;975;48.760;9.152;2022-12-20T03:18:46;15.98;;;7.45;;
1949;SDS011;975;48.760;9.152;2022-12-20T03:21:35;15.35;;;8.02;;
1949;SDS011;975;48.760;9.152;2022-12-20T03:24:23;15.32;;;6.95;;
1949;SDS011;975;48.760;9.152;2022-12-20T03:27:11;13.35;;;6.53;;
1949;SDS011;975;48.760;9.152;2022-12-20T03:29:59;17.17;;;8.35;;
1949;SDS011;975;48.760;9.152;2022-12-20T03:32:47;17.30;;;6.93;;
1949;SDS011;975;48.760;9.152;2022-12-20T03:35:34;16.15;;;6.32;;
1949;SDS011;975;48.760;9.152;2022-12-20T03:38:24;10.02;;;6.28;;
1949;SDS011;975;48.760;9.152;2022-12-20T03:41:11;11.90;;;5.63;;
1949;SDS011;975;48.760;9.152;2022-12-20T03:43:59;12.88;;;5.95;;
1949;SDS011;975;48.760;9.152;2022-12-20T03:46:47;12.38;;;5.85;;
1949;SDS011;975;48.760;9.152;2022-12-20T03:49:35;10.90;;;5.85;;
1949;SDS011;975;48.760;9.152;2022-12-20T03:52:23;10.02;;;5.05;;
1949;SDS011;975;48.760;9.152;2022-12-20T03:55:12;13.57;;;6.07;;
1949;SDS011;975;48.760;9.152;2022-12-20T03:58:00;11.90;;;5.63;;
1949;SDS011;975;48.760;9.152;2022-12-20T04:00:48;13.57;;;5.60;;
1949;SDS011;975;48.760;9.152;2022-12-20T04:03:36;12.55;;;6.10;;
1949;SDS011;975;48.760;9.152;2022-12-20T04:06:24;13.32;;;6.28;;
1949;SDS011;975;48.760;9.152;2022-12-20T04:09:11;11.32;;;5.82;;
1949;SDS011;975;48.760;9.152;2022-12-20T04:12:01;11.50;;;6.50;;
1949;SDS011;975;48.760;9.152;2022-12-20T04:14:48;12.75;;;6.30;;
1949;SDS011;975;48.760;9.152;2022-12-20T04:17:36;11.95;;;6.22;;
1949;SDS011;975;48.760;9.152;2022-12-20T04:20:24;9.45;;;5.50;;
1949;SDS011;975;48.760;9.152;2022-12-20T04:23:12;12.70;;;5.15;;
1949;SDS011;975;48.760;9.152;2022-12-20T04:26:00;8.50;;;4.70;;
1949;SDS011;975;48.760;9.152;2022-12-20T04:28:49;11.88;;;5.15;;
1949;SDS011;975;48.760;9.152;2022-12-20T04:31:37;9.90;;;5.07;;
1949;SDS011;975;48.760;9.152;2022-12-20T04:34:25;10.30;;;5.50;;
1949;SDS011;975;48.760;9.152;2022-12-20T04:37:14;11.63;;;5.53;;
1949;SDS011;975;48.760;9.152;2022-12-20T04:40:01;10.02;;;5.10;;
1949;SDS011;975;48.760;9.152;2022-12-20T04:42:49;10.57;;;5.40;;
1949;SDS011;975;48.760;9.152;2022-12-20T04:45:39;10.27;;;4.88;;
1949;SDS011;975;48.760;9.152;2022-12-20T04:48:27;10.63;;;5.55;;
1949;SDS011;975;48.760;9.152;2022-12-20T04:51:15;14.00;;;6.20;;
1949;SDS011;975;48.760;9.152;2022-12-20T04:54:03;12.25;;;5.60;;
1949;SDS011;975;48.760;9.152;2022-12-20T04:56:50;10.85;;;5.75;;
1949;SDS011;975;48.760;9.152;2022-12-20T04:59:38;10.68;;;5.47;;
1949;SDS011;975;48.760;9.152;2022-12-20T05:02:27;10.85;;;5.18;;
1949;SDS011;975;48.760;9.152;2022-12-20T05:05:15;9.48;;;5.28;;
1949;SDS011;975;48.760;9.152;2022-12-20T05:08:03;10.98;;;5.25;;
1949;SDS011;975;48.760;9.152;2022-12-20T05:10:50;6.50;;;4.32;;
1949;SDS011;975;48.760;9.152;2022-12-20T05:13:38;10.38;;;4.82;;
1949;SDS011;975;48.760;9.152;2022-12-20T05:16:26;8.55;;;4.43;;
1949;SDS011;975;48.760;9.152;2022-12-20T05:19:16;10.82;;;4.32;;
1949;SDS011;975;48.760;9.152;2022-12-20T05:22:03;11.23;;;4.68;;
1949;SDS011;975;48.760;9.152;2022-12-20T05:25:09;7.22;;;4.10;;
1949;SDS011;975;48.760;9.152;2022-12-20T05:28:15;11.43;;;5.05;;
1949;SDS011;975;48.760;9.152;2022-12-20T05:31:02;7.45;;;4.68;;
1949;SDS011;975;48.760;9.152;2022-12-20T05:33:51;7.70;;;4.22;;
1949;SDS011;975;48.760;9.152;2022-12-20T05:36:41;8.60;;;4.30;;
1949;SDS011;975;48.760;9.152;2022-12-20T05:39:29;10.32;;;4.55;;
1949;SDS011;975;48.760;9.152;2022-12-20T05:42:17;13.63;;;6.50;;
1949;SDS011;975;48.760;9.152;2022-12-20T05:45:05;9.85;;;4.63;;
1949;SDS011;975;48.760;9.152;2022-12-20T05:47:53;11.27;;;5.45;;
1949;SDS011;975;48.760;9.152;2022-12-20T05:50:41;7.40;;;4.88;;
1949;SDS011;975;48.760;9.152;2022-12-20T05:53:31;10.70;;;4.85;;
1949;SDS011;975;48.760;9.152;2022-12-20T05:56:19;11.02;;;4.45;;
1949;SDS011;975;48.760;9.152;2022-12-20T05:59:07;10.40;;;5.00;;
1949;SDS011;975;48.760;9.152;2022-12-20T06:01:55;8.40;;;4.70;;
1949;SDS011;975;48.760;9.152;2022-12-20T06:04:43;9.13;;;4.75;;
1949;SDS011;975;48.760;9.152;2022-12-20T06:07:31;8.70;;;4.53;;
1949;SDS011;975;48.760;9.152;2022-12-20T06:10:22;8.68;;;4.07;;
1949;SDS011;975;48.760;9.152;2022-12-20T06:13:11;10.02;;;4.68;;
1949;SDS011;975;48.760;9.152;2022-12-20T06:16:04;8.70;;;4.93;;
1949;SDS011;975;48.760;9.152;2022-12-20T06:19:05;9.75;;;4.90;;
1949;SDS011;975;48.760;9.152;2022-12-20T06:21:53;7.38;;;4.50;;
1949;SDS011;975;48.760;9.152;2022-12-20T06:24:41;10.73;;;4.78;;
1949;SDS011;975;48.760;9.152;2022-12-20T06:27:30;7.88;;;4.28;;
1949;SDS011;975;48.760;9.152;2022-12-20T06:30:18;8.00;;;4.10;;
1949;SDS011;975;48.760;9.152;2022-12-20T06:33:06;8.60;;;4.20;;
1949;SDS011;975;48.760;9.152;2022-12-20T06:35:54;11.20;;;4.30;;
1949;SDS011;975;48.760;9.152;2022-12-20T06:38:43;6.88;;;3.80;;
1949;SDS011;975;48.760;9.152;2022-12-20T06:41:31;9.38;;;4.30;;
1949;SDS011;975;48.760;9.152;2022-12-20T06:44:20;8.15;;;4.40;;
1949;SDS011;975;48.760;9.152;2022-12-20T06:47:08;8.77;;;4.15;;
1949;SDS011;975;48.760;9.152;2022-12-20T06:49:56;7.22;;;4.28;;
1949;SDS011;975;48.760;9.152;2022-12-20T06:52:44;7.75;;;4.10;;
1949;SDS011;975;48.760;9.152;2022-12-20T06:55:32;7.70;;;4.32;;
1949;SDS011;975;48.760;9.152;2022-12-20T06:58:20;11.02;;;4.70;;
1949;SDS011;975;48.760;9.152;2022-12-20T07:01:09;8.77;;;3.60;;
1949;SDS011;975;48.760;9.152;2022-12-20T07:03:57;11.20;;;4.22;;
1949;SDS011;975;48.760;9.152;2022-12-20T07:06:45;11.35;;;5.25;;
1949;SDS011;975;48.760;9.152;2022-12-20T07:09:32;6.45;;;3.70;;
1949;SDS011;975;48.760;9.152;2022-12-20T07:12:22;7.90;;;4.47;;
1949;SDS011;975;48.760;9.152;2022-12-20T07:15:10;7.22;;;4.10;;
1949;SDS011;975;48.760;9.152;2022-12-20T07:17:59;9.00;;;3.95;;
1949;SDS011;975;48.760;9.152;2022-12-20T07:20:47;7.38;;;4.13;;
1949;SDS011;975;48.760;9.152;2022-12-20T07:23:35;7.55;;;3.85;;
1949;SDS011;975;48.760;9.152;2022-12-20T07:26:23;10.00;;;3.83;;
1949;SDS011;975;48.760;9.152;2022-12-20T07:29:11;7.85;;;3.85;;
1949;SDS011;975;48.760;9.152;2022-12-20T07:31:59;8.13;;;3.75;;
1949;SDS011;975;48.760;9.152;2022-12-20T07:34:48;10.73;;;4.05;;
1949;SDS011;975;48.760;9.152;2022-12-20T07:37:36;9.05;;;3.85;;
1949;SDS011;975;48.760;9.152;2022-12-20T07:40:24;6.18;;;3.20;;
1949;SDS011;975;48.760;9.152;2022-12-20T07:43:12;8.43;;;3.60;;
1949;SDS011;975;48.760;9.152;2022-12-20T07:46:00;5.95;;;3.42;;
1949;SDS011;975;48.760;9.152;2022-12-20T07:48:48;8.75;;;3.15;;
1949;SDS011;975;48.760;9.152;2022-12-20T07:51:38;22.95;;;10.38;;
1949;SDS011;975;48.760;9.152;2022-12-20T07:54:29;12.45;;;4.43;;
1949;SDS011;975;48.760;9.152;2022-12-20T07:57:18;7.88;;;4.13;;
1949;SDS011;975;48.760;9.152;2022-12-20T08:00:08;10.10;;;3.78;;
1949;SDS011;975;48.760;9.152;2022-12-20T08:02:57;10.05;;;4.13;;
1949;SDS011;975;48.760;9.152;2022-12-20T08:05:48;11.65;;;5.00;;
1949;SDS011;975;48.760;9.152;2022-12-20T08:08:39;8.25;;;3.70;;
1949;SDS011;975;48.760;9.152;2022-12-20T08:11:28;9.35;;;4.35;;
1949;SDS011;975;48.760;9.152;2022-12-20T08:14:16;9.32;;;4.30;;
1949;SDS011;975;48.760;9.152;2022-12-20T08:17:05;8.15;;;3.63;;
1949;SDS011;975;48.760;9.152;2022-12-20T08:19:53;8.23;;;3.20;;
1949;SDS011;975;48.760;9.152;2022-12-20T08:22:42;7.32;;;3.10;;
1949;SDS011;975;48.760;9.152;2022-12-20T08:25:32;6.07;;;3.17;;
1949;SDS011;975;48.760;9.152;2022-12-20T08:28:20;7.78;;;3.58;;
1949;SDS011;975;48.760;9.152;2022-12-20T08:31:08;4.32;;;2.85;;
1949;SDS011;975;48.760;9.152;2022-12-20T08:33:57;7.60;;;3.47;;
1949;SDS011;975;48.760;9.152;2022-12-20T08:36:45;6.30;;;2.58;;
1949;SDS011;975;48.760;9.152;2022-12-20T08:39:33;9.80;;;2.60;;
1949;SDS011;975;48.760;9.152;2022-12-20T08:42:23;3.78;;;2.40;;
1949;SDS011;975;48.760;9.152;2022-12-20T08:45:11;4.22;;;2.47;;
1949;SDS011;975;48.760;9.152;2022-12-20T08:47:58;6.28;;;3.30;;
1949;SDS011;975;48.760;9.152;2022-12-20T08:50:46;7.57;;;2.80;;
1949;SDS011;975;48.760;9.152;2022-12-20T08:53:34;5.40;;;3.03;;
1949;SDS011;975;48.760;9.152;2022-12-20T08:56:22;4.97;;;2.88;;
1949;SDS011;975;48.760;9.152;2022-12-20T08:59:11;8.50;;;3.08;;
1949;SDS011;975;48.760;9.152;2022-12-20T09:01:59;4.53;;;2.90;;
1949;SDS011;975;48.760;9.152;2022-12-20T09:04:47;7.13;;;3.10;;
1949;SDS011;975;48.760;9.152;2022-12-20T09:07:35;7.13;;;3.42;;
1949;SDS011;975;48.760;9.152;2022-12-20T09:10:23;7.05;;;3.60;;
1949;SDS011;975;48.760;9.152;2022-12-20T09:13:11;4.72;;;2.88;;
1949;SDS011;975;48.760;9.152;2022-12-20T09:16:00;10.88;;;3.13;;
1949;SDS011;975;48.760;9.152;2022-12-20T09:21:36;4.72;;;3.08;;
1949;SDS011;975;48.760;9.152;2022-12-20T09:24:24;7.00;;;3.35;;
1949;SDS011;975;48.760;9.152;2022-12-20T09:27:12;6.03;;;3.30;;
1949;SDS011;975;48.760;9.152;2022-12-20T09:30:00;3.95;;;2.80;;
1949;SDS011;975;48.760;9.152;2022-12-20T09:32:49;5.57;;;2.72;;
1949;SDS011;975;48.760;9.152;2022-12-20T09:35:42;8.50;;;2.75;;
1949;SDS011;975;48.760;9.152;2022-12-20T09:38:30;5.25;;;2.75;;
1949;SDS011;975;48.760;9.152;2022-12-20T09:41:21;5.05;;;2.78;;
1949;SDS011;975;48.760;9.152;2022-12-20T09:44:11;2.95;;;2.45;;
1949;SDS011;975;48.760;9.152;2022-12-20T09:47:03;3.50;;;2.15;;
1949;SDS011;975;48.760;9.152;2022-12-20T09:49:54;7.65;;;2.80;;
1949;SDS011;975;48.760;9.152;2022-12-20T09:55:49;6.22;;;3.22;;
1949;SDS011;975;48.760;9.152;2022-12-20T09:58:56;5.55;;;2.95;;
1949;SDS011;975;48.760;9.152;2022-12-20T10:01:44;4.53;;;2.70;;
1949;SDS011;975;48.760;9.152;2022-12-20T10:04:32;3.28;;;2.38;;
1949;SDS011;975;48.760;9.152;2022-12-20T10:07:25;3.38;;;2.40;;
1949;SDS011;975;48.760;9.152;2022-12-20T10:10:27;7.47;;;2.83;;
1949;SDS011;975;48.760;9.152;2022-12-20T10:13:22;8.02;;;2.40;;
1949;SDS011;975;48.760;9.152;2022-12-20T10:16:16;4.45;;;2.65;;
1949;SDS011;975;48.760;9.152;2022-12-20T10:19:12;4.63;;;2.25;;
1949;SDS011;975;48.760;9.152;2022-12-20T10:22:06;3.90;;;2.10;;
1949;SDS011;975;48.760;9.152;2022-12-20T10:24:58;4.45;;;2.00;;
1949;SDS011;975;48.760;9.152;2022-12-20T10:27:47;4.55;;;2.47;;
1949;SDS011;975;48.760;9.152;2022-12-20T10:30:35;4.75;;;2.35;;
1949;SDS011;975;48.760;9.152;2022-12-20T10:33:23;7.57;;;2.80;;
1949;SDS011;975;48.760;9.152;2022-12-20T10:36:18;5.55;;;2.40;;
1949;SDS011;975;48.760;9.152;2022-12-20T10:39:07;4.88;;;2.42;;
1949;SDS011;975;48.760;9.152;2022-12-20T10:41:56;4.10;;;2.08;;
1949;SDS011;975;48.760;9.152;2022-12-20T10:44:44;4.65;;;2.50;;
1949;SDS011;975;48.760;9.152;2022-12-20T10:47:34;2.42;;;1.90;;
1949;SDS011;975;48.760;9.152;2022-12-20T10:50:23;5.65;;;2.15;;
1949;SDS011;975;48.760;9.152;2022-12-20T10:53:16;6.50;;;2.60;;
1949;SDS011;975;48.760;9.152;2022-12-20T10:56:11;3.63;;;2.00;;
1949;SDS011;975;48.760;9.152;2022-12-20T10:59:01;5.65;;;2.40;;
1949;SDS011;975;48.760;9.152;2022-12-20T11:01:49;5.30;;;2.47;;
1949;SDS011;975;48.760;9.152;2022-12-20T11:04:37;5.10;;;2.30;;
1949;SDS011;975;48.760;9.152;2022-12-20T11:07:26;8.52;;;2.55;;
1949;SDS011;975;48.760;9.152;2022-12-20T11:10:17;4.45;;;2.25;;
1949;SDS011;975;48.760;9.152;2022-12-20T11:13:05;5.80;;;2.60;;
1949;SDS011;975;48.760;9.152;2022-12-20T11:15:54;3.97;;;2.30;;
1949;SDS011;975;48.760;9.152;2022-12-20T11:18:48;3.72;;;2.22;;
1949;SDS011;975;48.760;9.152;2022-12-20T11:21:40;3.00;;;2.30;;
1949;SDS011;975;48.760;9.152;2022-12-20T11:24:30;5.13;;;2.65;;
1949;SDS011;975;48.760;9.152;2022-12-20T11:27:22;5.72;;;2.60;;
1949;SDS011;975;48.760;9.152;2022-12-20T11:30:15;7.63;;;2.63;;
1949;SDS011;975;48.760;9.152;2022-12-20T11:33:15;5.75;;;2.40;;
1949;SDS011;975;48.760;9.152;2022-12-20T11:36:09;5.45;;;2.58;;
1949;SDS011;975;48.760;9.152;2022-12-20T11:39:03;6.90;;;2.50;;
1949;SDS011;975;48.760;9.152;2022-12-20T11:41:54;4.60;;;2.80;;
1949;SDS011;975;48.760;9.152;2022-12-20T11:44:52;5.50;;;2.70;;
1949;SDS011;975;48.760;9.152;2022-12-20T11:47:52;4.75;;;3.22;;
1949;SDS011;975;48.760;9.152;2022-12-20T11:50:48;7.20;;;2.78;;
1949;SDS011;975;48.760;9.152;2022-12-20T11:53:38;5.03;;;2.53;;
1949;SDS011;975;48.760;9.152;2022-12-20T11:56:29;5.97;;;2.53;;
1949;SDS011;975;48.760;9.152;2022-12-20T11:59:18;6.45;;;2.80;;
1949;SDS011;975;48.760;9.152;2022-12-20T12:02:08;8.88;;;3.38;;
1949;SDS011;975;48.760;9.152;2022-12-20T12:04:57;7.53;;;3.90;;
1949;SDS011;975;48.760;9.152;2022-12-20T12:07:48;6.93;;;3.40;;
1949;SDS011;975;48.760;9.152;2022-12-20T12:10:38;6.82;;;3.55;;
1949;SDS011;975;48.760;9.152;2022-12-20T12:13:29;7.55;;;3.50;;
1949;SDS011;975;48.760;9.152;2022-12-20T12:16:18;7.55;;;3.33;;
1949;SDS011;975;48.760;9.152;2022-12-20T12:19:08;9.00;;;3.85;;
1949;SDS011;975;48.760;9.152;2022-12-20T12:21:58;6.50;;;2.92;;
1949;SDS011;975;48.760;9.152;2022-12-20T12:24:50;7.65;;;3.03;;
1949;SDS011;975;48.760;9.152;2022-12-20T12:27:39;5.32;;;2.80;;
1949;SDS011;975;48.760;9.152;2022-12-20T12:30:27;6.55;;;3.53;;
1949;SDS011;975;48.760;9.152;2022-12-20T12:33:17;8.13;;;2.90;;
1949;SDS011;975;48.760;9.152;2022-12-20T12:36:14;7.38;;;2.50;;
1949;SDS011;975;48.760;9.152;2022-12-20T12:42:26;7.57;;;3.05;;
1949;SDS011;975;48.760;9.152;2022-12-20T12:45:21;5.70;;;2.22;;
1949;SDS011;975;48.760;9.152;2022-12-20T12:48:13;6.28;;;2.78;;
1949;SDS011;975;48.760;9.152;2022-12-20T12:51:02;5.88;;;2.80;;
1949;SDS011;975;48.760;9.152;2022-12-20T12:53:51;6.93;;;2.75;;
1949;SDS011;975;48.760;9.152;2022-12-20T12:56:40;5.70;;;2.65;;
1949;SDS011;975;48.760;9.152;2022-12-20T13:02:49;5.70;;;2.83;;
1949;SDS011;975;48.760;9.152;2022-12-20T13:05:37;3.88;;;2.20;;
1949;SDS011;975;48.760;9.152;2022-12-20T13:08:45;4.43;;;2.65;;
1949;SDS011;975;48.760;9.152;2022-12-20T13:11:33;5.18;;;2.55;;
1949;SDS011;975;48.760;9.152;2022-12-20T13:17:42;3.17;;;2.00;;
1949;SDS011;975;48.760;9.152;2022-12-20T13:20:34;5.20;;;2.30;;
1949;SDS011;975;48.760;9.152;2022-12-20T13:23:22;6.43;;;2.40;;
1949;SDS011;975;48.760;9.152;2022-12-20T13:29:22;4.13;;;2.50;;
1949;SDS011;975;48.760;9.152;2022-12-20T13:35:27;6.13;;;2.30;;
1949;SDS011;975;48.760;9.152;2022-12-20T13:41:27;6.13;;;2.30;;
1949;SDS011;975;48.760;9.152;2022-12-20T13:47:27;5.32;;;1.80;;
1949;SDS011;975;48.760;9.152;2022-12-20T13:50:29;5.93;;;2.42;;
1949;SDS011;975;48.760;9.152;2022-12-20T13:56:19;4.07;;;2.33;;
1949;SDS011;975;48.760;9.152;2022-12-20T13:59:12;3.88;;;2.15;;
1949;SDS011;975;48.760;9.152;2022-12-20T14:02:02;8.75;;;2.55;;
1949;SDS011;975;48.760;9.152;2022-12-20T14:04:52;5.50;;;2.42;;
1949;SDS011;975;48.760;9.152;2022-12-20T14:07:44;3.97;;;2.00;;
1949;SDS011;975;48.760;9.152;2022-12-20T14:10:33;3.58;;;1.92;;
1949;SDS011;975;48.760;9.152;2022-12-20T14:13:22;4.50;;;2.45;;
1949;SDS011;975;48.760;9.152;2022-12-20T14:16:13;5.43;;;2.40;;
1949;SDS011;975;48.760;9.152;2022-12-20T14:19:02;6.47;;;2.58;;
1949;SDS011;975;48.760;9.152;2022-12-20T14:21:50;5.68;;;2.78;;
1949;SDS011;975;48.760;9.152;2022-12-20T14:24:38;7.15;;;3.10;;
1949;SDS011;975;48.760;9.152;2022-12-20T14:27:27;5.65;;;2.95;;
1949;SDS011;975;48.760;9.152;2022-12-20T14:30:29;4.28;;;2.85;;
1949;SDS011;975;48.760;9.152;2022-12-20T14:33:20;6.32;;;2.58;;
1949;SDS011;975;48.760;9.152;2022-12-20T14:39:53;9.68;;;3.10;;
1949;SDS011;975;48.760;9.152;2022-12-20T14:42:41;4.13;;;2.13;;
1949;SDS011;975;48.760;9.152;2022-12-20T14:45:30;5.88;;;2.72;;
1949;SDS011;975;48.760;9.152;2022-12-20T14:48:19;7.38;;;2.80;;
1949;SDS011;975;48.760;9.152;2022-12-20T14:51:07;4.05;;;2.50;;
1949;SDS011;975;48.760;9.152;2022-12-20T14:53:55;7.25;;;2.95;;
1949;SDS011;975;48.760;9.152;2022-12-20T14:56:44;4.90;;;2.50;;
1949;SDS011;975;48.760;9.152;2022-12-20T14:59:32;4.13;;;2.63;;
1949;SDS011;975;48.760;9.152;2022-12-20T15:02:32;8.35;;;2.95;;
1949;SDS011;975;48.760;9.152;2022-12-20T15:08:29;3.40;;;2.40;;
1949;SDS011;975;48.760;9.152;2022-12-20T15:14:09;6.85;;;2.50;;
1949;SDS011;975;48.760;9.152;2022-12-20T15:17:05;5.82;;;3.15;;
1949;SDS011;975;48.760;9.152;2022-12-20T15:19:55;5.97;;;2.75;;
1949;SDS011;975;48.760;9.152;2022-12-20T15:22:43;4.47;;;2.45;;
1949;SDS011;975;48.760;9.152;2022-12-20T15:25:33;10.40;;;3.40;;
1949;SDS011;975;48.760;9.152;2022-12-20T15:28:22;9.10;;;3.45;;
1949;SDS011;975;48.760;9.152;2022-12-20T15:31:10;10.95;;;4.28;;
1949;SDS011;975;48.760;9.152;2022-12-20T15:33:58;9.68;;;3.70;;
1949;SDS011;975;48.760;9.152;2022-12-20T15:36:47;8.48;;;3.65;;
1949;SDS011;975;48.760;9.152;2022-12-20T15:39:34;7.35;;;3.30;;
1949;SDS011;975;48.760;9.152;2022-12-20T15:42:24;6.85;;;2.97;;
1949;SDS011;975;48.760;9.152;2022-12-20T15:45:12;7.57;;;3.45;;
1949;SDS011;975;48.760;9.152;2022-12-20T15:48:00;4.72;;;2.45;;
1949;SDS011;975;48.760;9.152;2022-12-20T15:50:49;7.05;;;3.03;;
1949;SDS011;975;48.760;9.152;2022-12-20T15:53:41;8.48;;;2.55;;
1949;SDS011;975;48.760;9.152;2022-12-20T15:56:29;5.82;;;2.40;;
1949;SDS011;975;48.760;9.152;2022-12-20T15:59:18;4.85;;;2.42;;
1949;SDS011;975;48.760;9.152;2022-12-20T16:02:08;4.55;;;2.38;;
1949;SDS011;975;48.760;9.152;2022-12-20T16:05:02;6.05;;;3.22;;
1949;SDS011;975;48.760;9.152;2022-12-20T16:07:50;5.38;;;2.40;;
1949;SDS011;975;48.760;9.152;2022-12-20T16:10:38;5.15;;;2.75;;
1949;SDS011;975;48.760;9.152;2022-12-20T16:13:26;5.13;;;2.70;;
1949;SDS011;975;48.760;9.152;2022-12-20T16:16:17;11.80;;;3.30;;
1949;SDS011;975;48.760;9.152;2022-12-20T16:19:05;6.15;;;3.20;;
1949;SDS011;975;48.760;9.152;2022-12-20T16:21:52;4.63;;;2.60;;
1949;SDS011;975;48.760;9.152;2022-12-20T16:24:40;4.50;;;2.72;;
1949;SDS011;975;48.760;9.152;2022-12-20T16:27:28;5.82;;;3.00;;
1949;SDS011;975;48.760;9.152;2022-12-20T16:30:16;5.05;;;2.95;;
1949;SDS011;975;48.760;9.152;2022-12-20T16:33:05;6.35;;;3.58;;
1949;SDS011;975;48.760;9.152;2022-12-20T16:35:53;6.53;;;2.92;;
1949;SDS011;975;48.760;9.152;2022-12-20T16:38:41;4.90;;;3.25;;
1949;SDS011;975;48.760;9.152;2022-12-20T16:41:30;8.95;;;3.67;;
1949;SDS011;975;48.760;9.152;2022-12-20T16:44:18;6.40;;;3.28;;
1949;SDS011;975;48.760;9.152;2022-12-20T16:47:05;12.02;;;3.70;;
1949;SDS011;975;48.760;9.152;2022-12-20T16:49:55;6.70;;;3.15;;
1949;SDS011;975;48.760;9.152;2022-12-20T16:52:43;6.07;;;3.40;;
1949;SDS011;975;48.760;9.152;2022-12-20T16:55:31;5.45;;;3.33;;
1949;SDS011;975;48.760;9.152;2022-12-20T16:58:19;7.20;;;3.90;;
1949;SDS011;975;48.760;9.152;2022-12-20T17:01:07;5.88;;;3.35;;
1949;SDS011;975;48.760;9.152;2022-12-20T17:03:56;14.65;;;3.55;;
1949;SDS011;975;48.760;9.152;2022-12-20T17:06:46;6.90;;;3.45;;
1949;SDS011;975;48.760;9.152;2022-12-20T17:09:34;8.55;;;3.55;;
1949;SDS011;975;48.760;9.152;2022-12-20T17:12:22;5.82;;;3.00;;
1949;SDS011;975;48.760;9.152;2022-12-20T17:15:13;6.40;;;3.05;;
1949;SDS011;975;48.760;9.152;2022-12-20T17:18:01;8.10;;;3.80;;
1949;SDS011;975;48.760;9.152;2022-12-20T17:20:49;6.80;;;3.78;;
1949;SDS011;975;48.760;9.152;2022-12-20T17:23:39;5.75;;;3.30;;
1949;SDS011;975;48.760;9.152;2022-12-20T17:26:28;6.35;;;3.40;;
1949;SDS011;975;48.760;9.152;2022-12-20T17:29:16;5.47;;;3.45;;
1949;SDS011;975;48.760;9.152;2022-12-20T17:32:10;6.43;;;2.92;;
1949;SDS011;975;48.760;9.152;2022-12-20T17:35:03;7.72;;;3.55;;
1949;SDS011;975;48.760;9.152;2022-12-20T17:37:52;9.40;;;3.85;;
1949;SDS011;975;48.760;9.152;2022-12-20T17:40:43;8.70;;;4.20;;
1949;SDS011;975;48.760;9.152;2022-12-20T17:43:31;7.35;;;3.28;;
1949;SDS011;975;48.760;9.152;2022-12-20T17:46:19;7.55;;;3.42;;
1949;SDS011;975;48.760;9.152;2022-12-20T17:49:07;9.00;;;3.75;;
1949;SDS011;975;48.760;9.152;2022-12-20T17:51:54;7.97;;;3.15;;
1949;SDS011;975;48.760;9.152;2022-12-20T17:54:42;8.18;;;3.58;;
1949;SDS011;975;48.760;9.152;2022-12-20T17:57:31;12.63;;;4.68;;
1949;SDS011;975;48.760;9.152;2022-12-20T18:00:27;9.20;;;4.45;;
1949;SDS011;975;48.760;9.152;2022-12-20T18:03:15;6.55;;;3.55;;
1949;SDS011;975;48.760;9.152;2022-12-20T18:06:04;10.00;;;4.38;;
1949;SDS011;975;48.760;9.152;2022-12-20T18:08:52;6.25;;;3.60;;
1949;SDS011;975;48.760;9.152;2022-12-20T18:11:40;6.30;;;2.85;;
1949;SDS011;975;48.760;9.152;2022-12-20T18:14:30;6.68;;;3.10;;
1949;SDS011;975;48.760;9.152;2022-12-20T18:17:18;6.85;;;3.72;;
1949;SDS011;975;48.760;9.152;2022-12-20T18:20:07;9.25;;;3.53;;
1949;SDS011;975;48.760;9.152;2022-12-20T18:22:55;4.03;;;2.90;;
1949;SDS011;975;48.760;9.152;2022-12-20T18:25:43;6.93;;;2.97;;
1949;SDS011;975;48.760;9.152;2022-12-20T18:28:30;5.75;;;2.78;;
1949;SDS011;975;48.760;9.152;2022-12-20T18:31:20;4.25;;;2.67;;
1949;SDS011;975;48.760;9.152;2022-12-20T18:34:09;6.00;;;3.15;;